Time;durP1;ratioP1;P1;durP2;ratioP2;P2;SDS_P1;SDS_P2;PMS_P1;PMS_P2;Temp;Humidity;BMP_temperature;BMP_pressure;BME280_temperature;BME280_humidity;BME280_pressure;Samples;Min_cycle;Max_cycle;Signal;HPM_P1;HPM_P2
2022/07/18 00:01:44;0.00;0.00;0.62;0.00;0.00;0.62;3.30;2.60;;;28.50;25.30;;;;;;2226520;62;20398;-66
2022/07/18 00:04:29;0.00;0.00;0.62;0.00;0.00;0.62;4.00;3.23;;;28.50;25.40;;;;;;2226569;62;20389;-66
2022/07/18 00:07:14;0.00;0.00;0.62;0.00;0.00;0.62;6.07;2.37;;;28.50;25.40;;;;;;2226992;62;20442;-67
2022/07/18 00:09:59;0.00;0.00;0.62;0.00;0.00;0.62;5.20;3.00;;;28.50;25.40;;;;;;2227188;62;20395;-66
2022/07/18 00:12:44;0.00;0.00;0.62;0.00;0.00;0.62;9.30;3.10;;;28.50;25.40;;;;;;2226605;62;20404;-67
2022/07/18 00:15:29;0.00;0.00;0.62;0.00;0.00;0.62;3.73;2.77;;;28.40;25.40;;;;;;2226642;62;20361;-66
2022/07/18 00:18:16;0.00;0.00;0.62;0.00;0.00;0.62;4.13;2.60;;;28.40;25.50;;;;;;2226445;62;20361;-67
2022/07/18 00:21:01;0.00;0.00;0.62;0.00;0.00;0.62;3.70;2.70;;;28.40;25.50;;;;;;2226013;62;20507;-67
2022/07/18 00:23:46;0.00;0.00;0.62;0.00;0.00;0.62;3.60;3.00;;;28.40;25.60;;;;;;2225807;62;20404;-67
2022/07/18 00:26:30;0.00;0.00;0.62;0.00;0.00;0.62;2.60;2.40;;;28.40;25.70;;;;;;2226273;62;20382;-66
2022/07/18 00:29:15;0.00;0.00;0.62;0.00;0.00;0.62;4.63;2.70;;;28.40;25.70;;;;;;2226069;62;20399;-66
2022/07/18 00:32:00;0.00;0.00;0.62;0.00;0.00;0.62;5.43;3.20;;;28.40;25.70;;;;;;2226261;62;20454;-66
2022/07/18 00:34:46;0.00;0.00;0.62;0.00;0.00;0.62;4.90;3.27;;;28.30;25.60;;;;;;2226076;62;20374;-66
2022/07/18 00:37:31;0.00;0.00;0.62;0.00;0.00;0.62;5.10;3.30;;;28.30;25.70;;;;;;2225783;62;20382;-66
2022/07/18 00:40:16;0.00;0.00;0.62;0.00;0.00;0.62;4.80;3.23;;;28.30;25.70;;;;;;2226521;62;20770;-66
2022/07/18 00:43:02;0.00;0.00;0.62;0.00;0.00;0.62;4.40;3.43;;;28.30;25.80;;;;;;2225943;62;20412;-66
2022/07/18 00:45:48;0.00;0.00;0.62;0.00;0.00;0.62;4.67;3.10;;;28.20;25.70;;;;;;2225396;62;20383;-66
2022/07/18 00:48:33;0.00;0.00;0.62;0.00;0.00;0.62;3.57;3.27;;;28.20;25.80;;;;;;2226135;62;20366;-66
2022/07/18 00:51:20;0.00;0.00;0.62;0.00;0.00;0.62;4.33;3.60;;;28.20;25.80;;;;;;2226544;62;20431;-66
2022/07/18 00:54:05;0.00;0.00;0.62;0.00;0.00;0.62;3.33;2.67;;;28.10;25.80;;;;;;2226173;62;20471;-66
2022/07/18 00:56:51;0.00;0.00;0.62;0.00;0.00;0.62;3.67;3.07;;;28.10;25.80;;;;;;2225980;62;20722;-66
2022/07/18 01:02:40;0.00;0.00;0.62;0.00;0.00;0.62;3.30;2.73;;;28.10;25.80;;;;;;2449847;54;20351;-66
2022/07/18 01:05:25;0.00;0.00;0.62;0.00;0.00;0.62;5.60;3.50;;;28.10;25.90;;;;;;2222068;62;20395;-66
2022/07/18 01:08:11;0.00;0.00;0.62;0.00;0.00;0.62;4.63;3.00;;;28.10;25.90;;;;;;2221692;62;20447;-66
2022/07/18 01:10:56;0.00;0.00;0.62;0.00;0.00;0.62;3.30;2.93;;;28.10;25.90;;;;;;2222322;62;20402;-66
2022/07/18 01:13:42;0.00;0.00;0.62;0.00;0.00;0.62;5.10;3.40;;;28.00;25.80;;;;;;2222567;62;20397;-67
2022/07/18 01:16:27;0.00;0.00;0.62;0.00;0.00;0.62;7.63;3.80;;;28.00;25.90;;;;;;2222212;62;20583;-66
2022/07/18 01:19:12;0.00;0.00;0.62;0.00;0.00;0.62;4.67;3.20;;;28.00;25.90;;;;;;2221880;62;20390;-66
2022/07/18 01:21:58;0.00;0.00;0.62;0.00;0.00;0.62;6.00;3.63;;;28.00;25.90;;;;;;2221738;62;20428;-66
2022/07/18 01:24:43;0.00;0.00;0.62;0.00;0.00;0.62;5.57;3.37;;;28.00;26.00;;;;;;2222438;62;20367;-67
2022/07/18 01:27:30;0.00;0.00;0.62;0.00;0.00;0.62;4.90;3.30;;;27.90;25.90;;;;;;2221919;62;20358;-67
2022/07/18 01:30:15;0.00;0.00;0.62;0.00;0.00;0.62;4.30;3.37;;;27.90;25.90;;;;;;2221701;62;20370;-66
2022/07/18 01:33:02;0.00;0.00;0.62;0.00;0.00;0.62;6.93;3.67;;;27.90;25.90;;;;;;2222306;62;20440;-67
2022/07/18 01:35:47;0.00;0.00;0.62;0.00;0.00;0.62;5.17;3.73;;;27.80;25.90;;;;;;2222499;62;20367;-67
2022/07/18 01:38:34;0.00;0.00;0.62;0.00;0.00;0.62;4.67;2.97;;;27.80;25.90;;;;;;2221963;62;20411;-66
2022/07/18 01:41:19;0.00;0.00;0.62;0.00;0.00;0.62;5.57;3.07;;;27.70;25.80;;;;;;2221949;62;20395;-66
2022/07/18 01:44:04;0.00;0.00;0.62;0.00;0.00;0.62;4.27;3.37;;;27.60;25.80;;;;;;2221570;62;20594;-66
2022/07/18 01:46:49;0.00;0.00;0.62;0.00;0.00;0.62;5.90;3.60;;;27.50;25.80;;;;;;2222409;62;20375;-66
2022/07/18 01:49:34;0.00;0.00;0.62;0.00;0.00;0.62;6.50;3.80;;;27.40;25.80;;;;;;2221772;62;20627;-66
2022/07/18 01:52:19;0.00;0.00;0.62;0.00;0.00;0.62;4.67;3.07;;;27.30;25.80;;;;;;2221310;62;20399;-66
2022/07/18 01:55:09;0.00;0.00;0.62;0.00;0.00;0.62;5.90;3.40;;;27.20;25.90;;;;;;2222236;62;20737;-66
2022/07/18 01:57:54;0.00;0.00;0.62;0.00;0.00;0.62;5.57;3.40;;;27.10;25.90;;;;;;2222401;62;20378;-66
2022/07/18 02:00:39;0.00;0.00;0.62;0.00;0.00;0.62;3.30;2.93;;;27.10;26.00;;;;;;2224791;62;20398;-67
2022/07/18 02:03:24;0.00;0.00;0.62;0.00;0.00;0.62;5.90;3.77;;;27.00;26.10;;;;;;2225658;62;20369;-66
2022/07/18 02:06:09;0.00;0.00;0.62;0.00;0.00;0.62;6.03;3.50;;;26.90;26.10;;;;;;2225512;62;20399;-66
2022/07/18 02:08:53;0.00;0.00;0.62;0.00;0.00;0.62;4.97;3.50;;;26.90;26.20;;;;;;2226196;62;20484;-66
2022/07/18 02:11:40;0.00;0.00;0.62;0.00;0.00;0.62;4.10;2.90;;;26.80;26.20;;;;;;2225664;62;20644;-66
2022/07/18 02:14:24;0.00;0.00;0.62;0.00;0.00;0.62;3.93;2.97;;;26.80;26.30;;;;;;2225489;62;20374;-66
2022/07/18 02:17:09;0.00;0.00;0.62;0.00;0.00;0.62;4.27;3.43;;;26.80;26.40;;;;;;2226197;62;20399;-66
2022/07/18 02:19:54;0.00;0.00;0.62;0.00;0.00;0.62;8.10;3.07;;;26.70;26.40;;;;;;2225825;62;20393;-68
2022/07/18 02:22:39;0.00;0.00;0.62;0.00;0.00;0.62;5.80;3.10;;;26.70;26.40;;;;;;2225556;62;20384;-65
2022/07/18 02:25:24;0.00;0.00;0.62;0.00;0.00;0.62;5.60;3.13;;;26.60;26.20;;;;;;2225689;62;20369;-67
2022/07/18 02:28:13;0.00;0.00;0.62;0.00;0.00;0.62;4.57;3.03;;;26.60;26.10;;;;;;2224938;62;20710;-65
2022/07/18 02:30:58;0.00;0.00;0.62;0.00;0.00;0.62;4.30;2.53;;;26.50;26.00;;;;;;2226293;62;20386;-67
2022/07/18 02:33:43;0.00;0.00;0.62;0.00;0.00;0.62;3.73;2.40;;;26.40;25.90;;;;;;2225598;62;20366;-65
2022/07/18 02:36:27;0.00;0.00;0.62;0.00;0.00;0.62;3.93;2.60;;;26.30;26.00;;;;;;2225388;62;20390;-67
2022/07/18 02:39:12;0.00;0.00;0.62;0.00;0.00;0.62;3.50;1.80;;;26.20;26.60;;;;;;2226100;62;20448;-66
2022/07/18 02:41:57;0.00;0.00;0.62;0.00;0.00;0.62;3.27;1.97;;;26.20;26.20;;;;;;2225845;62;20433;-67
2022/07/18 02:44:45;0.00;0.00;0.62;0.00;0.00;0.62;2.47;1.70;;;26.10;26.30;;;;;;2225707;62;20382;-67
2022/07/18 02:47:30;0.00;0.00;0.62;0.00;0.00;0.62;5.03;2.20;;;26.10;26.40;;;;;;2225348;62;20373;-64
2022/07/18 02:50:16;0.00;0.00;0.62;0.00;0.00;0.62;2.53;1.97;;;26.00;26.40;;;;;;2225765;62;20419;-68
2022/07/18 02:53:00;0.00;0.00;0.62;0.00;0.00;0.62;3.70;2.20;;;26.00;26.50;;;;;;2226456;62;20365;-67
2022/07/18 02:55:45;0.00;0.00;0.62;0.00;0.00;0.62;3.30;2.10;;;26.00;26.50;;;;;;2225634;62;20370;-65
2022/07/18 02:58:32;0.00;0.00;0.62;0.00;0.00;0.62;3.30;2.30;;;26.10;26.60;;;;;;2225266;62;20485;-67
2022/07/18 03:01:18;0.00;0.00;0.62;0.00;0.00;0.62;6.07;2.17;;;26.00;26.60;;;;;;2226014;62;20429;-67
2022/07/18 03:04:03;0.00;0.00;0.62;0.00;0.00;0.62;3.70;1.93;;;26.00;26.50;;;;;;2225783;62;20454;-66
2022/07/18 03:06:49;0.00;0.00;0.62;0.00;0.00;0.62;3.00;2.27;;;26.00;26.50;;;;;;2225399;62;20370;-67
2022/07/18 03:09:34;0.00;0.00;0.62;0.00;0.00;0.62;3.70;2.20;;;26.00;26.40;;;;;;2225428;62;20411;-67
2022/07/18 03:12:19;0.00;0.00;0.62;0.00;0.00;0.62;3.70;2.10;;;26.00;26.50;;;;;;2225791;62;20390;-66
2022/07/18 03:15:05;0.00;0.00;0.62;0.00;0.00;0.62;2.53;1.80;;;25.90;26.40;;;;;;2226141;62;20370;-66
2022/07/18 03:17:51;0.00;0.00;0.62;0.00;0.00;0.62;3.93;2.43;;;25.90;26.40;;;;;;2225412;62;20763;-67
2022/07/18 03:20:36;0.00;0.00;0.62;0.00;0.00;0.62;3.30;2.37;;;25.80;26.50;;;;;;2225206;62;20401;-67
2022/07/18 03:23:21;0.00;0.00;0.62;0.00;0.00;0.62;3.57;2.63;;;25.80;26.50;;;;;;2226007;62;20361;-66
2022/07/18 03:26:06;0.00;0.00;0.62;0.00;0.00;0.62;4.17;2.13;;;25.80;26.60;;;;;;2225636;62;20577;-67
2022/07/18 03:28:51;0.00;0.00;0.62;0.00;0.00;0.62;4.03;2.03;;;25.80;26.60;;;;;;2225148;62;20387;-67
2022/07/18 03:31:35;0.00;0.00;0.62;0.00;0.00;0.62;2.83;2.10;;;25.70;26.60;;;;;;2225756;62;20390;-68
2022/07/18 03:34:22;0.00;0.00;0.62;0.00;0.00;0.62;5.20;2.17;;;25.70;26.70;;;;;;2226068;62;20370;-65
2022/07/18 03:37:07;0.00;0.00;0.62;0.00;0.00;0.62;2.57;1.90;;;25.70;26.70;;;;;;2225707;62;20583;-66
2022/07/18 03:39:52;0.00;0.00;0.62;0.00;0.00;0.62;3.07;2.00;;;25.70;26.70;;;;;;2225511;62;20421;-67
2022/07/18 03:42:37;0.00;0.00;0.62;0.00;0.00;0.62;3.63;1.83;;;25.70;26.60;;;;;;2225240;62;20370;-67
2022/07/18 03:45:22;0.00;0.00;0.62;0.00;0.00;0.62;4.47;2.20;;;25.70;26.60;;;;;;2225938;62;20361;-67
2022/07/18 03:48:07;0.00;0.00;0.62;0.00;0.00;0.62;4.70;2.57;;;25.70;26.70;;;;;;2225355;62;20587;-67
2022/07/18 03:50:53;0.00;0.00;0.62;0.00;0.00;0.62;2.13;1.63;;;25.60;26.60;;;;;;2225234;62;20406;-65
2022/07/18 03:53:38;0.00;0.00;0.62;0.00;0.00;0.62;4.10;2.07;;;25.60;26.70;;;;;;2226234;62;20370;-67
2022/07/18 03:56:23;0.00;0.00;0.62;0.00;0.00;0.62;3.53;1.70;;;25.60;26.70;;;;;;2226661;62;20398;-64
2022/07/18 03:59:08;0.00;0.00;0.62;0.00;0.00;0.62;3.40;1.90;;;25.60;26.70;;;;;;2226108;62;20394;-67
2022/07/18 04:01:53;0.00;0.00;0.62;0.00;0.00;0.62;3.23;2.13;;;25.70;26.80;;;;;;2225934;62;20794;-66
2022/07/18 04:04:38;0.00;0.00;0.62;0.00;0.00;0.62;2.90;1.73;;;25.70;26.80;;;;;;2225850;62;20370;-67
2022/07/18 04:07:24;0.00;0.00;0.62;0.00;0.00;0.62;2.90;2.13;;;25.70;26.80;;;;;;2226517;62;20408;-66
2022/07/18 04:10:10;0.00;0.00;0.62;0.00;0.00;0.62;3.23;2.03;;;25.70;26.90;;;;;;2225947;62;20374;-66
2022/07/18 04:12:56;0.00;0.00;0.62;0.00;0.00;0.62;3.85;2.35;;;25.70;26.80;;;;;;2225632;62;20400;-67
2022/07/18 04:15:41;0.00;0.00;0.62;0.00;0.00;0.62;5.87;2.70;;;25.70;27.00;;;;;;2226467;62;20244;-67
2022/07/18 04:18:26;0.00;0.00;0.62;0.00;0.00;0.62;2.80;1.97;;;25.70;26.80;;;;;;2225923;62;20439;-68
2022/07/18 04:21:12;0.00;0.00;0.62;0.00;0.00;0.62;3.50;2.03;;;25.80;26.80;;;;;;2226077;62;20470;-66
2022/07/18 04:23:59;0.00;0.00;0.62;0.00;0.00;0.62;3.80;2.30;;;25.80;26.80;;;;;;2225952;62;20387;-66
2022/07/18 04:26:43;0.00;0.00;0.62;0.00;0.00;0.62;3.70;2.73;;;25.80;26.80;;;;;;2225964;62;20374;-64
2022/07/18 04:29:31;0.00;0.00;0.62;0.00;0.00;0.62;4.33;2.60;;;25.80;26.70;;;;;;2226562;62;20361;-65
2022/07/18 04:32:16;0.00;0.00;0.62;0.00;0.00;0.62;3.63;2.17;;;25.80;26.70;;;;;;2226117;62;20431;-67
2022/07/18 04:35:01;0.00;0.00;0.62;0.00;0.00;0.62;6.67;2.67;;;25.80;26.60;;;;;;2226015;62;20454;-67
2022/07/18 04:37:46;0.00;0.00;0.62;0.00;0.00;0.62;3.50;2.17;;;25.70;26.40;;;;;;2226269;62;20415;-69
2022/07/18 04:40:32;0.00;0.00;0.62;0.00;0.00;0.62;5.10;2.37;;;25.70;26.40;;;;;;2226235;62;20656;-67
2022/07/18 04:43:17;0.00;0.00;0.62;0.00;0.00;0.62;3.27;2.40;;;25.60;26.30;;;;;;2225861;62;20406;-68
2022/07/18 04:46:02;0.00;0.00;0.62;0.00;0.00;0.62;5.23;2.57;;;25.50;26.30;;;;;;2225882;62;20761;-68
2022/07/18 04:48:47;0.00;0.00;0.62;0.00;0.00;0.62;3.20;2.17;;;25.50;26.40;;;;;;2225758;62;20817;-68
2022/07/18 04:51:32;0.00;0.00;0.62;0.00;0.00;0.62;2.93;1.87;;;25.40;26.50;;;;;;2226531;62;20401;-65
2022/07/18 04:54:17;0.00;0.00;0.62;0.00;0.00;0.62;6.53;2.40;;;25.30;26.50;;;;;;2226006;62;20373;-67
2022/07/18 04:57:03;0.00;0.00;0.62;0.00;0.00;0.62;8.43;3.17;;;25.20;26.50;;;;;;2225762;62;20722;-68
2022/07/18 04:59:48;0.00;0.00;0.62;0.00;0.00;0.62;7.17;2.30;;;25.10;26.60;;;;;;2226462;62;20722;-68
2022/07/18 05:02:33;0.00;0.00;0.62;0.00;0.00;0.62;5.07;2.37;;;25.10;26.70;;;;;;2226022;62;20369;-67
2022/07/18 05:05:19;0.00;0.00;0.62;0.00;0.00;0.62;5.67;2.20;;;25.00;26.70;;;;;;2225689;62;20404;-65
2022/07/18 05:08:05;0.00;0.00;0.62;0.00;0.00;0.62;4.33;2.33;;;25.00;26.70;;;;;;2225866;62;20642;-68
2022/07/18 05:10:50;0.00;0.00;0.62;0.00;0.00;0.62;3.00;2.07;;;25.00;26.70;;;;;;2226087;62;20495;-66
2022/07/18 05:13:36;0.00;0.00;0.62;0.00;0.00;0.62;4.30;1.70;;;25.00;26.70;;;;;;2226519;62;20362;-68
2022/07/18 05:16:21;0.00;0.00;0.62;0.00;0.00;0.62;5.83;2.20;;;25.00;26.60;;;;;;2225589;62;20362;-67
2022/07/18 05:19:05;0.00;0.00;0.62;0.00;0.00;0.62;4.83;2.37;;;25.00;26.50;;;;;;2225390;62;20646;-67
2022/07/18 05:21:50;0.00;0.00;0.62;0.00;0.00;0.62;2.37;1.80;;;25.00;26.50;;;;;;2226481;62;20404;-63
2022/07/18 05:24:35;0.00;0.00;0.62;0.00;0.00;0.62;5.50;2.60;;;25.00;26.50;;;;;;2225959;62;20438;-65
2022/07/18 05:27:19;0.00;0.00;0.62;0.00;0.00;0.62;3.30;2.10;;;24.90;26.40;;;;;;2225421;62;20578;-69
2022/07/18 05:30:10;0.00;0.00;0.62;0.00;0.00;0.62;4.83;2.20;;;24.90;26.50;;;;;;2225851;62;20362;-65
2022/07/18 05:32:56;0.00;0.00;0.62;0.00;0.00;0.62;5.03;2.20;;;24.90;26.50;;;;;;2226028;62;20371;-67
2022/07/18 05:35:41;0.00;0.00;0.62;0.00;0.00;0.62;4.63;2.40;;;24.80;26.50;;;;;;2226256;62;20362;-67
2022/07/18 05:38:26;0.00;0.00;0.62;0.00;0.00;0.62;7.03;2.07;;;24.80;26.60;;;;;;2225709;62;20383;-66
2022/07/18 05:41:10;0.00;0.00;0.62;0.00;0.00;0.62;3.63;2.13;;;24.70;26.60;;;;;;2225486;62;20683;-67
2022/07/18 05:43:55;0.00;0.00;0.62;0.00;0.00;0.62;8.83;2.00;;;24.70;26.60;;;;;;2226096;62;20370;-68
2022/07/18 05:46:41;0.00;0.00;0.62;0.00;0.00;0.62;2.83;1.90;;;24.70;26.70;;;;;;2225942;62;20445;-67
2022/07/18 05:49:26;0.00;0.00;0.62;0.00;0.00;0.62;3.50;2.30;;;24.70;26.70;;;;;;2225374;62;20370;-71
2022/07/18 05:52:11;0.00;0.00;0.62;0.00;0.00;0.62;9.70;2.60;;;24.60;26.70;;;;;;2226088;62;20386;-67
2022/07/18 05:54:55;0.00;0.00;0.62;0.00;0.00;0.62;4.80;2.30;;;24.70;26.80;;;;;;2226351;62;20714;-72
2022/07/18 05:57:40;0.00;0.00;0.62;0.00;0.00;0.62;4.13;2.33;;;24.60;26.80;;;;;;2225782;62;20365;-68
2022/07/18 06:00:25;0.00;0.00;0.62;0.00;0.00;0.62;4.33;2.30;;;24.60;26.80;;;;;;2225624;62;20401;-70
2022/07/18 06:03:12;0.00;0.00;0.62;0.00;0.00;0.62;3.70;2.20;;;24.60;26.80;;;;;;2225403;62;20487;-73
2022/07/18 06:05:56;0.00;0.00;0.62;0.00;0.00;0.62;2.13;1.67;;;24.70;26.90;;;;;;2226233;62;20370;-67
2022/07/18 06:08:41;0.00;0.00;0.62;0.00;0.00;0.62;9.30;2.27;;;24.70;26.80;;;;;;2225230;62;20375;-69
2022/07/18 06:11:26;0.00;0.00;0.62;0.00;0.00;0.62;7.30;2.20;;;24.70;26.80;;;;;;2225440;62;20446;-70
2022/07/18 06:14:11;0.00;0.00;0.62;0.00;0.00;0.62;3.77;2.10;;;24.70;26.70;;;;;;2226055;62;20435;-71
2022/07/18 06:16:56;0.00;0.00;0.62;0.00;0.00;0.62;5.13;2.23;;;24.60;26.70;;;;;;2225715;62;20426;-70
2022/07/18 06:19:43;0.00;0.00;0.62;0.00;0.00;0.62;2.60;2.00;;;24.60;26.70;;;;;;2225811;62;20446;-70
2022/07/18 06:22:28;0.00;0.00;0.62;0.00;0.00;0.62;7.33;1.83;;;24.70;26.80;;;;;;2583500;46;20384;-70
2022/07/18 06:25:13;0.00;0.00;0.62;0.00;0.00;0.62;4.30;2.40;;;24.70;26.70;;;;;;2223238;62;20369;-74
2022/07/18 06:27:58;0.00;0.00;0.62;0.00;0.00;0.62;3.67;2.00;;;24.70;26.70;;;;;;2226096;62;20374;-75
2022/07/18 06:30:42;0.00;0.00;0.62;0.00;0.00;0.62;2.97;1.90;;;24.70;26.60;;;;;;2225648;62;20377;-69
2022/07/18 06:33:27;0.00;0.00;0.62;0.00;0.00;0.62;3.27;2.00;;;24.70;26.60;;;;;;2225426;62;20395;-69
2022/07/18 06:36:13;0.00;0.00;0.62;0.00;0.00;0.62;4.17;2.10;;;24.80;26.60;;;;;;2226099;62;20523;-71
2022/07/18 06:38:58;0.00;0.00;0.62;0.00;0.00;0.62;3.70;2.27;;;24.80;26.60;;;;;;2225412;62;20390;-68
2022/07/18 06:41:43;0.00;0.00;0.62;0.00;0.00;0.62;9.00;1.93;;;24.80;26.60;;;;;;2225559;62;20390;-71
2022/07/18 06:44:31;0.00;0.00;0.62;0.00;0.00;0.62;7.03;2.03;;;24.80;26.60;;;;;;2225145;62;20734;-71
2022/07/18 06:47:16;0.00;0.00;0.62;0.00;0.00;0.62;2.83;2.30;;;24.80;26.60;;;;;;2225146;62;20455;-75
2022/07/18 06:50:01;0.00;0.00;0.62;0.00;0.00;0.62;5.17;2.00;;;24.90;26.70;;;;;;2226190;62;20579;-72
2022/07/18 06:52:48;0.00;0.00;0.62;0.00;0.00;0.62;3.43;1.83;;;24.90;26.60;;;;;;2225503;62;20365;-70
2022/07/18 06:55:33;0.00;0.00;0.62;0.00;0.00;0.62;4.53;2.47;;;24.90;26.60;;;;;;2225396;62;20381;-74
2022/07/18 06:58:18;0.00;0.00;0.62;0.00;0.00;0.62;3.63;2.30;;;24.90;26.60;;;;;;2226105;62;20403;-74
2022/07/18 07:01:06;0.00;0.00;0.62;0.00;0.00;0.62;2.30;1.60;;;25.00;26.60;;;;;;2225620;62;20439;-71
2022/07/18 07:03:51;0.00;0.00;0.62;0.00;0.00;0.62;2.93;1.97;;;25.00;26.70;;;;;;2225000;62;20416;-72
2022/07/18 07:06:40;0.00;0.00;0.62;0.00;0.00;0.62;3.53;2.20;;;25.00;26.70;;;;;;2225517;62;20636;-70
2022/07/18 07:09:26;0.00;0.00;0.62;0.00;0.00;0.62;2.47;1.80;;;25.00;26.70;;;;;;2225292;62;20357;-69
2022/07/18 07:12:11;0.00;0.00;0.62;0.00;0.00;0.62;5.50;2.20;;;25.00;26.70;;;;;;2226197;62;20393;-70
2022/07/18 07:14:56;0.00;0.00;0.62;0.00;0.00;0.62;4.77;2.10;;;25.00;26.70;;;;;;2225571;62;20362;-70
2022/07/18 07:17:41;0.00;0.00;0.62;0.00;0.00;0.62;4.60;2.00;;;25.10;26.80;;;;;;2225308;62;20374;-73
2022/07/18 07:20:26;0.00;0.00;0.62;0.00;0.00;0.62;3.67;2.03;;;25.10;26.80;;;;;;2226101;62;20393;-71
2022/07/18 07:23:11;0.00;0.00;0.62;0.00;0.00;0.62;3.07;2.10;;;25.10;26.70;;;;;;2225835;62;20378;-71
2022/07/18 07:25:58;0.00;0.00;0.62;0.00;0.00;0.62;3.80;2.17;;;25.10;26.70;;;;;;2225477;62;20362;-73
2022/07/18 07:28:42;0.00;0.00;0.62;0.00;0.00;0.62;3.47;2.00;;;25.20;26.70;;;;;;2226083;62;21066;-72
2022/07/18 07:31:27;0.00;0.00;0.62;0.00;0.00;0.62;4.83;2.43;;;25.20;26.70;;;;;;2226049;62;20414;-70
2022/07/18 07:34:12;0.00;0.00;0.62;0.00;0.00;0.62;4.40;1.87;;;25.20;26.80;;;;;;2226352;62;20771;-69
2022/07/18 07:36:57;0.00;0.00;0.62;0.00;0.00;0.62;4.03;2.07;;;25.30;26.90;;;;;;2226227;62;20365;-71
2022/07/18 07:39:42;0.00;0.00;0.62;0.00;0.00;0.62;4.70;2.30;;;25.30;26.90;;;;;;2225824;62;20418;-71
2022/07/18 07:42:28;0.00;0.00;0.62;0.00;0.00;0.62;2.50;1.80;;;25.30;27.50;;;;;;2226354;62;20399;-64
2022/07/18 07:45:14;0.00;0.00;0.62;0.00;0.00;0.62;5.80;2.10;;;25.40;27.00;;;;;;2226015;62;20374;-69
2022/07/18 07:47:59;0.00;0.00;0.62;0.00;0.00;0.62;3.70;2.33;;;25.40;27.00;;;;;;2225729;62;20401;-69
2022/07/18 07:50:44;0.00;0.00;0.62;0.00;0.00;0.62;3.30;1.50;;;25.40;27.00;;;;;;2226273;62;20389;-72
2022/07/18 07:53:29;0.00;0.00;0.62;0.00;0.00;0.62;6.30;1.97;;;25.40;27.10;;;;;;2226102;62;20439;-72
2022/07/18 07:56:18;0.00;0.00;0.62;0.00;0.00;0.62;3.20;1.83;;;25.50;27.10;;;;;;2226608;62;20390;-67
2022/07/18 07:59:04;0.00;0.00;0.62;0.00;0.00;0.62;4.23;2.00;;;25.50;27.70;;;;;;2225922;62;20370;-75
2022/07/18 08:01:49;0.00;0.00;0.62;0.00;0.00;0.62;3.13;2.03;;;25.60;27.20;;;;;;2225685;62;20528;-69
2022/07/18 08:04:34;0.00;0.00;0.62;0.00;0.00;0.62;3.17;1.60;;;25.60;27.20;;;;;;2225734;62;20420;-70
2022/07/18 08:07:20;0.00;0.00;0.62;0.00;0.00;0.62;5.20;2.70;;;25.60;27.20;;;;;;2243647;62;20456;-71
2022/07/18 08:10:07;0.00;0.00;0.62;0.00;0.00;0.62;3.20;1.70;;;25.70;27.20;;;;;;2225797;62;20362;-71
2022/07/18 08:12:52;0.00;0.00;0.62;0.00;0.00;0.62;2.43;1.50;;;25.70;27.20;;;;;;2226180;62;20488;-71
2022/07/18 08:15:39;0.00;0.00;0.62;0.00;0.00;0.62;2.73;1.50;;;25.80;27.20;;;;;;2226319;62;20409;-74
2022/07/18 08:18:24;0.00;0.00;0.62;0.00;0.00;0.62;4.97;2.07;;;25.80;27.10;;;;;;2226364;62;20365;-69
2022/07/18 08:21:09;0.00;0.00;0.62;0.00;0.00;0.62;3.37;1.40;;;25.90;27.10;;;;;;2226005;62;20450;-73
2022/07/18 08:23:54;0.00;0.00;0.62;0.00;0.00;0.62;3.20;1.63;;;25.90;27.10;;;;;;2225661;62;20407;-71
2022/07/18 08:26:39;0.00;0.00;0.62;0.00;0.00;0.62;2.00;1.40;;;26.00;27.10;;;;;;2450121;54;20706;-70
2022/07/18 08:29:24;0.00;0.00;0.62;0.00;0.00;0.62;2.83;1.43;;;26.00;27.00;;;;;;2221926;62;20398;-69
2022/07/18 08:32:10;0.00;0.00;0.62;0.00;0.00;0.62;2.70;1.70;;;26.00;27.40;;;;;;2221962;62;20403;-68
2022/07/18 08:34:55;0.00;0.00;0.62;0.00;0.00;0.62;3.67;1.77;;;26.10;26.90;;;;;;2222577;62;20379;-69
2022/07/18 08:37:40;0.00;0.00;0.62;0.00;0.00;0.62;2.83;1.70;;;26.10;26.80;;;;;;2222439;62;20399;-69
2022/07/18 08:40:25;0.00;0.00;0.62;0.00;0.00;0.62;6.33;1.53;;;26.20;26.80;;;;;;2221879;62;20399;-70
2022/07/18 08:43:11;0.00;0.00;0.62;0.00;0.00;0.62;2.67;1.80;;;26.20;26.80;;;;;;2221914;62;20387;-75
2022/07/18 08:46:02;0.00;0.00;0.62;0.00;0.00;0.62;3.80;1.63;;;26.30;26.70;;;;;;2221839;62;20486;-69
2022/07/18 08:48:49;0.00;0.00;0.62;0.00;0.00;0.62;2.90;1.60;;;26.30;26.70;;;;;;2222154;62;20391;-71
2022/07/18 08:51:34;0.00;0.00;0.62;0.00;0.00;0.62;2.10;1.47;;;26.40;26.70;;;;;;2222189;62;20745;-65
2022/07/18 08:54:20;0.00;0.00;0.62;0.00;0.00;0.62;3.60;2.00;;;26.40;26.70;;;;;;2221998;62;20436;-71
2022/07/18 08:57:04;0.00;0.00;0.62;0.00;0.00;0.62;3.87;1.70;;;26.40;26.70;;;;;;2222374;62;20450;-70
2022/07/18 08:59:50;0.00;0.00;0.62;0.00;0.00;0.62;1.90;1.37;;;26.50;26.70;;;;;;2222421;62;20441;-70
2022/07/18 09:02:35;0.00;0.00;0.62;0.00;0.00;0.62;4.03;1.77;;;26.50;26.60;;;;;;2226022;62;20422;-71
2022/07/18 09:05:21;0.00;0.00;0.62;0.00;0.00;0.62;3.40;1.97;;;26.60;26.60;;;;;;2225821;62;20629;-72
2022/07/18 09:08:12;0.00;0.00;0.62;0.00;0.00;0.62;5.00;1.83;;;26.60;26.50;;;;;;2225444;62;20374;-68
2022/07/18 09:10:59;0.00;0.00;0.62;0.00;0.00;0.62;3.63;1.80;;;26.60;26.50;;;;;;2226496;62;20766;-70
2022/07/18 09:13:44;0.00;0.00;0.62;0.00;0.00;0.62;2.50;1.70;;;26.70;26.50;;;;;;2225872;62;20389;-69
2022/07/18 09:16:29;0.00;0.00;0.62;0.00;0.00;0.62;2.30;1.70;;;26.70;26.50;;;;;;2225867;62;20736;-68
2022/07/18 09:19:16;0.00;0.00;0.62;0.00;0.00;0.62;2.97;2.10;;;26.70;26.50;;;;;;2226069;62;20413;-71
2022/07/18 09:22:19;0.00;0.00;0.62;0.00;0.00;0.62;5.93;1.80;;;26.80;26.50;;;;;;2226050;62;20661;-71
2022/07/18 09:25:07;0.00;0.00;0.62;0.00;0.00;0.62;4.43;2.33;;;26.80;26.30;;;;;;2226627;62;20852;-69
2022/07/18 09:27:53;0.00;0.00;0.62;0.00;0.00;0.62;2.60;1.90;;;26.80;25.80;;;;;;2225657;62;20394;-72
2022/07/18 09:30:38;0.00;0.00;0.62;0.00;0.00;0.62;3.27;2.27;;;26.90;25.80;;;;;;2225680;62;20451;-70
2022/07/18 09:33:25;0.00;0.00;0.62;0.00;0.00;0.62;3.40;2.07;;;26.90;25.80;;;;;;2226264;62;20629;-71
2022/07/18 09:36:10;0.00;0.00;0.62;0.00;0.00;0.62;2.30;1.70;;;26.90;25.80;;;;;;2226012;62;20423;-71
2022/07/18 09:38:57;0.00;0.00;0.62;0.00;0.00;0.62;3.67;2.27;;;27.00;25.80;;;;;;2225102;62;20787;-71
2022/07/18 09:41:42;0.00;0.00;0.62;0.00;0.00;0.62;2.40;1.80;;;27.00;25.70;;;;;;2225739;62;20626;-70
2022/07/18 09:44:27;0.00;0.00;0.62;0.00;0.00;0.62;2.30;1.70;;;27.00;25.50;;;;;;2226000;62;20740;-70
2022/07/18 09:47:11;0.00;0.00;0.62;0.00;0.00;0.62;1.90;1.40;;;27.10;25.60;;;;;;2225677;62;20593;-65
2022/07/18 09:49:56;0.00;0.00;0.62;0.00;0.00;0.62;3.63;1.87;;;27.10;25.60;;;;;;2225262;62;20358;-70
2022/07/18 09:52:41;0.00;0.00;0.62;0.00;0.00;0.62;5.37;3.27;;;27.10;25.60;;;;;;2225623;62;20405;-74
2022/07/18 09:55:28;0.00;0.00;0.62;0.00;0.00;0.62;3.40;2.70;;;27.20;25.50;;;;;;2226338;62;20695;-73
2022/07/18 09:58:15;0.00;0.00;0.62;0.00;0.00;0.62;4.53;2.90;;;27.20;25.70;;;;;;2225679;62;20593;-73
2022/07/18 10:01:03;0.00;0.00;0.62;0.00;0.00;0.62;3.47;3.00;;;27.20;24.60;;;;;;2225347;62;20432;-72
2022/07/18 10:03:51;0.00;0.00;0.62;0.00;0.00;0.62;3.87;3.20;;;27.30;24.60;;;;;;2225994;62;20438;-73
2022/07/18 10:06:38;0.00;0.00;0.62;0.00;0.00;0.62;3.60;2.50;;;27.30;24.50;;;;;;2226274;62;20411;-74
2022/07/18 10:09:23;0.00;0.00;0.62;0.00;0.00;0.62;2.80;2.27;;;27.30;24.50;;;;;;2225935;62;20370;-72
2022/07/18 10:12:10;0.00;0.00;0.62;0.00;0.00;0.62;3.80;2.80;;;27.40;24.50;;;;;;2225778;62;20506;-72
2022/07/18 10:14:55;0.00;0.00;0.62;0.00;0.00;0.62;4.47;3.00;;;27.40;24.50;;;;;;2225035;62;20585;-75
2022/07/18 10:17:40;0.00;0.00;0.62;0.00;0.00;0.62;3.30;2.10;;;27.40;24.50;;;;;;2226246;62;20362;-72
2022/07/18 10:20:32;0.00;0.00;0.62;0.00;0.00;0.62;3.70;2.90;;;27.40;24.50;;;;;;2225368;62;20402;-77
2022/07/18 10:23:20;0.00;0.00;0.62;0.00;0.00;0.62;3.00;2.30;;;27.50;24.50;;;;;;2225576;62;20361;-73
2022/07/18 10:26:13;0.00;0.00;0.62;0.00;0.00;0.62;3.57;2.47;;;27.50;24.40;;;;;;2225795;62;20460;-75
2022/07/18 10:29:16;0.00;0.00;0.62;0.00;0.00;0.62;2.97;2.60;;;27.50;24.50;;;;;;2225736;62;20393;-71
2022/07/18 10:32:04;0.00;0.00;0.62;0.00;0.00;0.62;4.40;2.97;;;27.60;24.50;;;;;;2226392;62;20386;-74
2022/07/18 10:34:49;0.00;0.00;0.62;0.00;0.00;0.62;3.93;2.37;;;27.60;24.40;;;;;;2225772;62;20366;-76
2022/07/18 10:37:35;0.00;0.00;0.62;0.00;0.00;0.62;3.87;2.93;;;27.60;24.40;;;;;;2225338;62;20739;-75
2022/07/18 10:40:28;0.00;0.00;0.62;0.00;0.00;0.62;3.57;2.70;;;27.70;24.30;;;;;;2226088;62;20688;-73
2022/07/18 10:43:37;0.00;0.00;0.62;0.00;0.00;0.62;3.10;2.43;;;27.70;24.40;;;;;;2225842;62;20419;-79
2022/07/18 10:46:23;0.00;0.00;0.62;0.00;0.00;0.62;3.00;2.37;;;27.70;24.40;;;;;;2226126;62;20388;-72
2022/07/18 10:49:08;0.00;0.00;0.62;0.00;0.00;0.62;4.53;2.37;;;27.80;24.60;;;;;;2225448;62;20787;-73
2022/07/18 10:51:53;0.00;0.00;0.62;0.00;0.00;0.62;5.47;3.20;;;27.80;24.60;;;;;;2225558;62;20382;-75
2022/07/18 10:54:38;0.00;0.00;0.62;0.00;0.00;0.62;3.27;2.90;;;27.80;24.10;;;;;;2226281;62;20419;-71
2022/07/18 10:57:23;0.00;0.00;0.62;0.00;0.00;0.62;3.70;3.03;;;27.80;23.70;;;;;;2225549;62;20409;-70